Latest Coastal Weather Observations for Tasman Island

IDT60701

Issued at 10:32 am EST Monday 3 August 2015 (issued every 10 minutes, with the page automatically refreshed every 10 minutes)

About coastal observations | Map of coastal stations | Coastal observations for TAS | Marine services | Other Formats
Station Details ID: 094155 Name: TASMAN ISLAND Lat: -43.24 Lon: 148.00 Height: 240.0 m
Data from the previous 72 hours. | See also: Recent months at Tasman Island
Date/Time
EST
Temp

°C
Wind Pressure Rain
since 9am
mm
Weather Cloud Vis
km
Sea
Height
m
Swell
Dir
 
Speed
knots
Gust
knots
hPa Trend Height
m
Period
s
Dir
03/10:30am 1.8 W 15 35 998.9 - 0.6 - - - - - - -
03/10:00am 2.3 NNW 12 31 998.6 - 0.2 - - - - - - -
03/09:30am 2.1 W 11 37 997.8 - 0.2 - - - - - - -
03/09:27am 2.0 W 12 37 997.6 - 0.2 - - - - - - -
03/09:20am 2.1 W 13 38 997.2 - 0.2 - - - - - - -
03/09:17am 2.0 WNW 14 38 997.4 - 0.2 - - - - - - -
03/09:00am 2.2 WNW 8 25 997.4 - 3.0 Recent precip. - - - - - -
03/08:39am 1.8 NW 15 33 996.8 - 3.0 - - - - - - -
03/08:30am 1.7 WNW 13 29 997.0 - 2.8 - - - - - - -
03/08:00am 1.1 W 5 19 996.6 - 2.6 - - - - - - -
03/07:30am 0.8 W 11 29 996.1 - 2.6 - - - - - - -
03/07:00am 0.4 WNW 9 26 995.3 - 2.6 - - - - - - -
03/06:30am 0.5 SW 9 29 995.1 - 2.6 - - - - - - -
03/06:00am 1.6 WNW 14 32 994.3 - 2.6 - - - - - - -
03/05:59am 1.6 WNW 15 32 994.2 - 2.6 - - - - - - -
03/05:30am 1.6 WNW 8 22 994.2 - 2.6 - - - - - - -
03/05:00am 1.5 WNW 8 21 993.9 - 2.6 - - - - - - -
03/04:39am 0.9 WNW 15 25 994.0 - 2.6 - - - - - - -
03/04:30am 0.7 WNW 17 25 994.0 - 2.6 - - - - - - -
03/04:00am 0.4 ESE 6 18 993.7 - 2.4 - - - - - - -
03/03:30am 2.2 W 6 22 993.4 - 2.0 - - - - - - -
03/03:00am 1.8 W 7 17 993.0 - 2.0 - - - - - - -
03/02:30am 1.8 WNW 6 22 993.1 - 2.0 - - - - - - -
03/02:00am 2.5 NW 9 24 992.8 - 2.0 - - - - - - -
03/01:32am 2.7 WNW 15 33 993.0 - 2.0 - - - - - - -
03/01:30am 2.7 WNW 13 27 993.0 - 2.0 - - - - - - -
03/01:13am 2.9 WNW 20 38 992.2 - 2.0 - - - - - - -
03/01:00am 2.5 WNW 15 26 992.3 - 2.0 - - - - - - -
03/12:31am 2.4 WNW 25 35 991.7 - 2.0 - - - - - - -
03/12:30am 2.3 WNW 26 35 991.7 - 2.0 - - - - - - -
03/12:00am 2.5 WNW 25 40 991.9 - 2.0 - - - - - - -
 
Date/Time
EST
Temp

°C
Wind Pressure Rain
since 9am
mm
Weather Cloud Vis
km
Sea
Height
m
Swell
Dir
 
Speed
knots
Gust
knots
hPa Trend Height
m
Period
s
Dir
02/11:30pm 2.3 NW 21 31 993.0 - 2.0 - - - - - - -
02/11:24pm 2.2 WNW 19 29 993.0 - 2.0 - - - - - - -
02/11:00pm 1.9 NW 18 25 993.1 - 2.0 - - - - - - -
02/10:30pm 2.1 NW 25 42 993.4 - 1.6 - - - - - - -
02/10:00pm 3.5 NW 22 33 993.7 - 1.2 - - - - - - -
02/09:33pm 3.6 NW 20 30 993.7 - 1.2 - - - - - - -
02/09:30pm 3.6 NW 22 30 993.7 - 1.2 - - - - - - -
02/09:00pm 3.6 NW 18 29 994.0 - 1.2 - - - - - - -
02/08:30pm 3.9 WNW 23 35 994.4 - 1.2 - - - - - - -
02/08:00pm 4.0 NW 25 37 994.2 - 1.2 - - - - - - -
02/07:30pm 3.8 WNW 21 38 994.0 - 1.2 - - - - - - -
02/07:00pm 3.4 WNW 23 34 994.4 - 1.2 - - - - - - -
02/06:30pm 2.8 WNW 16 34 994.3 - 1.2 - - - - - - -
02/06:15pm 2.5 NW 20 35 994.6 - 1.2 - - - - - - -
02/06:00pm 3.8 WNW 13 33 994.7 - 1.2 - - - - - - -
02/05:30pm 4.1 NW 22 33 994.2 - 1.2 - - - - - - -
02/05:00pm 3.9 NW 19 32 993.7 - 1.2 - - - - - - -
02/04:48pm 4.3 WNW 13 26 993.5 - 1.2 - - - - - - -
02/04:30pm 4.5 WNW 7 22 993.3 - 1.2 - - - - - - -
02/04:00pm 4.5 NW 8 27 993.1 - 1.2 - - - - - - -
02/03:30pm 4.9 WNW 8 26 992.5 - 1.2 - - - - - - -
02/03:00pm 4.5 NW 10 29 992.7 - 1.2 - - - - - - -
02/02:30pm 4.9 NW 10 31 993.1 - 1.2 - - - - - - -
02/02:00pm 5.1 NW 11 32 992.0 - 1.2 - - - - - - -
02/01:49pm 5.2 WNW 9 29 991.8 - 1.2 - - - - - - -
02/01:30pm 5.1 WSW 8 25 992.3 - 1.2 - - - - - - -
02/01:04pm 7.0 NW 21 45 991.5 - 0.0 - - - - - - -
02/01:00pm 8.6 WNW 24 45 991.3 - 0.0 - - - - - - -
02/12:54pm 9.1 NW 21 43 991.4 - 0.0 - - - - - - -
02/12:53pm 9.2 NW 21 44 991.1 - 0.0 - - - - - - -
02/12:52pm 9.7 NW 20 44 991.4 - 0.0 - - - - - - -
02/12:40pm 11.0 NW 25 43 991.7 - 0.0 - - - - - - -
02/12:34pm 11.0 NW 20 31 992.0 - 0.0 - - - - - - -
02/12:30pm 10.8 WNW 20 30 992.2 - 0.0 - - - - - - -
02/12:00pm 10.8 NW 21 33 992.6 - 0.0 - - - - - - -
02/11:30am 10.3 NW 25 38 993.3 - 0.0 - - - - - - -
02/11:02am 9.6 NW 23 52 993.7 - 0.0 - - - - - - -
02/11:00am 9.7 NW 22 35 993.6 - 0.0 - - - - - - -
02/10:44am 9.2 NW 27 44 993.7 - 0.0 - - - - - - -
02/10:30am 8.9 NW 35 52 993.6 - 0.0 - - - - - - -
02/10:00am 8.7 NW 36 51 993.5 - 0.0 - - - - - - -
02/09:30am 8.0 NW 33 51 994.2 - 0.0 - - - - - - -
02/09:00am 7.7 NW 30 45 995.3 - 0.0 - - - - - - -
02/08:30am 7.4 NW 24 36 996.3 - 0.0 - - - - - - -
02/08:28am 7.4 NW 24 39 996.5 - 0.0 - - - - - - -
02/08:27am 7.4 NW 25 39 996.6 - 0.0 - - - - - - -
02/08:00am 7.3 NW 31 45 996.3 - 0.0 - - - - - - -
02/07:30am 6.8 NW 23 44 997.4 - 0.0 - - - - - - -
02/07:25am 6.8 NW 24 44 997.5 - 0.0 - - - - - - -
02/07:00am 6.3 NW 18 31 998.2 - 0.0 - - - - - - -
02/06:30am 6.1 NW 16 37 998.8 - 0.0 - - - - - - -
02/06:00am 6.2 NW 17 28 999.3 - 0.0 - - - - - - -
02/05:30am 6.1 NNW 25 35 999.3 - 0.0 - - - - - - -
02/05:01am 6.0 NNW 23 33 999.5 - 0.0 - - - - - - -
02/05:00am 6.0 NNW 24 33 999.6 - 0.0 - - - - - - -
02/04:30am 6.0 NNW 21 31 1000.2 - 0.0 - - - - - - -
02/04:01am 5.9 NNW 18 29 1001.1 - 0.0 - - - - - - -
02/04:00am 6.1 NNW 19 29 1001.0 - 0.0 - - - - - - -
02/03:40am 5.8 NW 19 29 1001.3 - 0.0 - - - - - - -
02/03:30am 6.0 NW 23 31 1001.3 - 0.0 - - - - - - -
02/03:00am 5.9 NW 21 29 1001.8 - 0.0 - - - - - - -
02/02:30am 6.0 NW 22 32 1002.2 - 0.0 - - - - - - -
02/02:28am 6.0 NW 21 32 1002.2 - 0.0 - - - - - - -
02/02:00am 5.7 NNW 20 29 1002.6 - 0.0 - - - - - - -
02/01:30am 5.7 NNW 21 31 1002.9 - 0.0 - - - - - - -
02/01:00am 5.4 NNW 21 35 1003.2 - 0.0 - - - - - - -
02/12:30am 5.4 NNW 19 30 1003.7 - 0.0 - - - - - - -
02/12:27am 5.3 NNW 18 28 1003.7 - 0.0 - - - - - - -
02/12:00am 5.2 NNW 17 26 1004.1 - 0.0 - - - - - - -
 
Date/Time
EST
Temp

°C
Wind Pressure Rain
since 9am
mm
Weather Cloud Vis
km
Sea
Height
m
Swell
Dir
 
Speed
knots
Gust
knots
hPa Trend Height
m
Period
s
Dir
01/11:30pm 5.4 NNW 21 31 1004.3 - 0.0 - - - - - - -
01/11:19pm 5.3 NNW 22 33 1004.2 - 0.0 - - - - - - -
01/11:00pm 5.3 NW 20 29 1004.7 - 0.0 - - - - - - -
01/10:30pm 5.7 NW 22 33 1004.5 - 0.0 - - - - - - -
01/10:00pm 5.9 NW 26 36 1004.5 - 0.0 - - - - - - -
01/09:32pm 5.6 NW 19 29 1005.0 - 0.0 - - - - - - -
01/09:30pm 5.7 NW 20 27 1005.0 - 0.0 - - - - - - -
01/09:00pm 5.6 NW 23 34 1004.9 - 0.0 - - - - - - -
01/08:58pm 5.5 NW 23 34 1004.9 - 0.0 - - - - - - -
01/08:30pm 5.5 NW 23 33 1005.2 - 0.0 - - - - - - -
01/08:20pm 5.5 NW 21 33 1005.4 - 0.0 - - - - - - -
01/08:00pm 5.3 NW 18 26 1005.4 - 0.0 - - - - - - -
01/07:30pm 5.7 NW 18 27 1005.2 - 0.0 - - - - - - -
01/07:00pm 6.2 WNW 15 30 1005.0 - 0.0 - - - - - - -
01/06:38pm 5.8 WNW 16 27 1005.0 - 0.0 - - - - - - -
01/06:30pm 5.7 NW 15 24 1005.1 - 0.0 - - - - - - -
01/06:16pm 5.8 NW 16 26 1005.1 - 0.0 - - - - - - -
01/06:00pm 6.3 NW 20 27 1004.8 - 0.0 - - - - - - -
01/05:30pm 6.2 NW 12 24 1004.4 - 0.0 - - - - - - -
01/05:00pm 6.7 NW 10 23 1003.7 - 0.0 - - - - - - -
01/04:30pm 6.6 WNW 5 16 1003.2 - 0.0 - - - - - - -
01/04:00pm 6.9 WSW 5 19 1002.6 - 0.0 - - - - - - -
01/03:30pm 6.6 WNW 10 31 1002.5 - 0.0 - - - - - - -
01/03:00pm 6.9 NW 11 27 1002.0 - 0.0 - - - - - - -
01/02:30pm 6.7 WNW 10 29 1001.4 - 0.0 - - - - - - -
01/02:00pm 6.7 NW 16 31 1001.1 - 0.0 - - - - - - -
01/01:53pm 6.9 NW 15 37 1001.2 - 0.0 - - - - - - -
01/01:30pm 7.1 NW 12 34 1001.1 - 0.0 - - - - - - -
01/01:27pm 6.9 WNW 11 34 1001.4 - 0.0 - - - - - - -
01/01:00pm 7.4 W 8 22 1001.2 - 0.0 - - - - - - -
01/12:30pm 7.0 W 6 21 1000.9 - 0.0 - - - - - - -
01/12:00pm 6.8 NNW 7 22 1001.0 - 0.0 - - - - - - -
01/11:30am 6.5 SE 6 26 1000.7 - 0.0 - - - - - - -
01/11:00am 6.3 WSW 8 27 1000.6 - 0.0 - - - - - - -
01/10:30am 5.9 WNW 9 25 1000.4 - 0.0 - - - - - - -
01/10:00am 5.8 WSW 6 19 1000.2 - 0.0 - - - - - - -
01/09:30am 5.8 W 7 21 999.7 - 0.0 - - - - - - -
01/09:00am 5.6 WNW 8 22 999.0 - 0.4 - - - - - - -
01/08:30am 5.3 NNW 7 19 998.6 - 0.4 - - - - - - -
01/08:00am 5.7 E 6 17 998.2 - 0.4 - - - - - - -
01/07:30am 6.6 W 6 26 997.2 - 0.2 - - - - - - -
01/07:00am 6.4 NW 17 27 996.8 - 0.2 - - - - - - -
01/06:30am 7.3 NW 22 37 996.2 - 0.2 - - - - - - -
01/06:00am 7.4 NW 27 42 995.7 - 0.2 Recent precip. - - - - - -
01/05:30am 8.0 NW 25 41 995.8 - 0.0 - - - - - - -
01/05:00am 8.2 NW 25 35 995.0 - 0.0 - - - - - - -
01/04:30am 8.4 NNW 25 43 994.5 - 0.0 - - - - - - -
01/04:27am 8.4 NNW 24 43 994.7 - 0.0 - - - - - - -
01/04:00am 8.3 NNW 21 33 995.3 - 0.0 - - - - - - -
01/03:30am 8.2 NNW 23 38 995.8 - 0.0 - - - - - - -
01/03:00am 8.1 NNW 20 34 996.9 - 0.0 - - - - - - -
01/02:30am 7.9 NNW 18 35 997.9 - 0.0 - - - - - - -
01/02:00am 7.7 N 21 36 999.2 - 0.0 - - - - - - -
01/01:30am 7.8 N 24 36 999.7 - 0.0 - - - - - - -
01/01:00am 7.7 N 20 31 999.9 - 0.0 - - - - - - -
01/12:57am 7.7 NNE 19 30 999.8 - 0.0 - - - - - - -
01/12:30am 7.7 N 18 31 1001.8 - 0.0 - - - - - - -
01/12:00am 7.5 NNE 16 29 1003.1 - 0.0 - - - - - - -
 
Date/Time
EST
Temp

°C
Wind Pressure Rain
since 9am
mm
Weather Cloud Vis
km
Sea
Height
m
Swell
Dir
 
Speed
knots
Gust
knots
hPa Trend Height
m
Period
s
Dir
31/11:30pm 7.4 N 16 30 1003.6 - 0.0 - - - - - - -
31/11:00pm 7.2 N 16 27 1003.8 - 0.0 - - - - - - -
31/10:30pm 7.3 N 20 30 1004.4 - 0.0 - - - - - - -
31/10:15pm 7.3 N 16 26 1005.0 - 0.0 - - - - - - -
31/10:00pm 7.3 N 17 26 1005.3 - 0.0 - - - - - - -
31/09:30pm 7.1 N 19 26 1006.1 - 0.0 - - - - - - -
31/09:02pm 7.2 N 17 28 1006.8 - 0.0 - - - - - - -
31/09:00pm 7.3 N 19 28 1006.9 - 0.0 - - - - - - -
31/08:30pm 7.2 N 17 24 1007.2 - 0.0 - - - - - - -
31/08:00pm 7.0 N 19 25 1007.5 - 0.0 - - - - - - -
31/07:30pm 6.9 N 13 22 1008.1 - 0.0 - - - - - - -
31/07:22pm 7.3 NNW 15 26 1008.1 - 0.0 - - - - - - -
31/07:00pm 7.1 NNW 14 21 1008.5 - 0.0 - - - - - - -
31/06:30pm 7.3 N 14 21 1008.6 - 0.0 - - - - - - -
31/06:00pm 7.2 N 12 16 1008.6 - 0.0 - - - - - - -
31/05:30pm 7.2 N 10 13 1008.7 - 0.0 - - - - - - -
31/05:00pm 7.6 N 10 15 1009.1 - 0.0 - - - - - - -
31/04:30pm 8.1 N 7 11 1009.5 - 0.0 - - - - - - -
31/04:00pm 8.3 NNW 5 9 1009.9 - 0.0 - - - - - - -
31/03:30pm 8.8 NNW 9 15 1010.2 - 0.0 - - - - - - -
31/03:00pm 9.0 NNW 11 15 1010.5 - 0.0 - - - - - - -
31/02:30pm 8.7 NNW 12 19 1010.5 - 0.0 - - - - - - -
31/02:00pm 8.6 NNW 13 23 1011.0 - 0.0 - - - - - - -
31/01:30pm 8.8 NNW 13 21 1011.3 - 0.0 - - - - - - -
31/01:00pm 7.7 NNW 12 17 1011.7 - 0.0 - - - - - - -
31/12:30pm 7.8 NNW 14 20 1012.1 - 0.0 - - - - - - -
31/12:00pm 8.3 NNW 11 16 1012.4 - 0.0 - - - - - - -
31/11:30am 8.2 NNW 9 15 1012.8 - 0.0 - - - - - - -
31/11:00am 7.5 NW 16 21 1012.7 - 0.0 - - - - - - -

Other Formats:

Comma delimited format used in spreadsheet applications
http://www.bom.gov.au/fwo/IDT60701/IDT60701.95986.axf

JavaScript Object Notation format (JSON) in row-major order
http://www.bom.gov.au/fwo/IDT60701/IDT60701.95986.json